Airfield :
LOGIN :

Register | Disclaimer

   EN    FR    IT 

 










Legend :    VFR   Marginal VFR   IFR   Intensive IFR   Very Intensive IFR
Visi :
Ceiling :
>= 8 km
>= 3000ft
5 to 8 km
1000 to 3000 ft
1500m to 5 km
500 to 1000 ft
800 to 1500m
200 to 500 ft
< 800m
< 200 ft
Symbols :   Thunderstorms  Fog  Heavy snow  Heavy precipitations  Wind > 20 kt
SIGMETs :     Misc.  Thunderstorms  Icing  Turbulence  Mountain Waves  Volcanic Ashes







- Airport Elevation : 495 ft
- IATA code : BUD


LHBP - Budapest Ferihegy

CURRENT METAR :
  • 171900Z 21006KT 9999 SCT040 BKN080 09/06 Q1009 NOSIG

EXPIRED METARs :
  • 171830Z 21004KT 170V250 9999 BKN040 BKN080 09/06 Q1009 NOSIG
  • 171800Z 21007KT 9999 BKN040 BKN080 09/06 Q1009 NOSIG
  • 171730Z 17005KT 9999 BKN040 08/07 Q1009 NOSIG
  • 171700Z 13004KT 9999 BKN041 07/07 Q1009 NOSIG

TAF TAF LHBP
Valid from the 17 at 18:00 until the 18 at 18:00 UTC


171715Z 1718/1818 22010KT 9999 BKN040
TEMPO 1721/1805 7000 -SHRA -RA SCT015 OVC030
BECMG 1802/1804 28008KT
TEMPO 1805/1809 5000 -SHRASN -SHSN BKN010 OVC025
BECMG 1809/1812 31013G25KT CAVOK
TEMPO 1812/1817 SCT030
No reported NOTAMs for that airfield.



MET'MAP, your aeronautical weather chart ! - Copyright ORBIFLY December 2007 - Disclaimer

ORBIFLY MET'MAP TEAM :

Programming & Development : Alexandra Zaïnal
Concept & Development : Baudouin d'Aumeries
Co-Development & Prog : Marc-Olivier Méhu
Technical & hardware support : Manuel Goepfert

Contact : metmap@orbifly.com




SOURCES & CREDITS :

   NOAA